Time;durP1;ratioP1;P1;durP2;ratioP2;P2;SDS_P1;SDS_P2;PMS_P1;PMS_P2;Temp;Humidity;BMP_temperature;BMP_pressure;BME280_temperature;BME280_humidity;BME280_pressure;Samples;Min_cycle;Max_cycle;Signal;HPM_P1;HPM_P2
2022/09/13 00:00:31;;;;;;;22.70;3.90;;;24.00;99.90;;;;;;5084365;28;20028;-82
2022/09/13 00:02:57;;;;;;;20.27;3.42;;;24.00;99.90;;;;;;5083996;28;20036;-81
2022/09/13 00:05:23;;;;;;;26.33;4.28;;;23.90;99.90;;;;;;5083301;28;20030;-81
2022/09/13 00:07:48;;;;;;;24.73;4.10;;;23.90;99.90;;;;;;5083927;28;20025;-81
2022/09/13 00:10:14;;;;;;;16.50;3.88;;;23.80;99.90;;;;;;5082522;28;20008;-81
2022/09/13 00:12:40;;;;;;;21.80;4.43;;;23.80;99.90;;;;;;5084069;28;20025;-82
2022/09/13 00:15:07;;;;;;;30.65;4.63;;;23.80;99.90;;;;;;5084319;28;20067;-81
2022/09/13 00:17:32;;;;;;;22.75;4.25;;;23.70;99.90;;;;;;5083787;28;20043;-81
2022/09/13 00:19:58;;;;;;;21.60;4.03;;;23.70;99.90;;;;;;5083602;28;20084;-81
2022/09/13 00:22:27;;;;;;;29.00;4.78;;;23.70;99.90;;;;;;5083927;28;20039;-82
2022/09/13 00:24:52;;;;;;;30.30;5.03;;;23.60;99.90;;;;;;5083889;28;20054;-81
2022/09/13 00:27:18;;;;;;;25.55;4.72;;;23.60;99.90;;;;;;5083564;28;20099;-81
2022/09/13 00:29:45;;;;;;;22.35;4.28;;;23.50;99.90;;;;;;5084197;28;20051;-81
2022/09/13 00:32:10;;;;;;;26.92;4.90;;;23.50;99.90;;;;;;5083698;28;20060;-81
2022/09/13 00:34:36;;;;;;;36.80;5.18;;;23.50;99.90;;;;;;5083486;28;20043;-81
2022/09/13 00:37:02;;;;;;;31.33;4.75;;;23.50;99.90;;;;;;5082367;28;20027;-81
2022/09/13 00:39:27;;;;;;;27.90;5.35;;;23.50;99.90;;;;;;5083588;28;20092;-81
2022/09/13 00:41:53;;;;;;;26.17;5.25;;;23.50;99.90;;;;;;5083044;28;20268;-81
2022/09/13 00:44:59;;;;;;;29.52;5.30;;;23.50;99.90;;;;;;5082601;28;20056;-82
2022/09/13 00:47:27;;;;;;;23.45;4.85;;;23.50;99.90;;;;;;5079908;28;20050;-81
2022/09/13 00:50:15;;;;;;;23.75;4.85;;;23.50;99.90;;;;;;5082710;28;20012;-82
2022/09/13 00:52:42;;;;;;;30.38;4.85;;;23.50;99.90;;;;;;5079838;28;20028;-81
2022/09/13 00:55:22;;;;;;;30.35;5.07;;;23.50;99.90;;;;;;5080661;28;20035;-81
2022/09/13 00:57:49;;;;;;;27.40;4.75;;;23.50;99.90;;;;;;5079519;28;20023;-81
2022/09/13 01:00:17;;;;;;;30.85;5.22;;;23.50;99.90;;;;;;5082735;28;20028;-81
2022/09/13 01:03:03;;;;;;;20.83;4.85;;;23.50;99.90;;;;;;5082858;28;20020;-81
2022/09/13 01:05:38;;;;;;;24.15;5.20;;;23.50;99.90;;;;;;5078134;28;20017;-81
2022/09/13 01:08:11;;;;;;;23.50;4.50;;;23.50;99.90;;;;;;5082479;28;20051;-81
2022/09/13 01:10:39;;;;;;;22.02;4.70;;;23.50;99.90;;;;;;5079511;28;20040;-81
2022/09/13 01:13:23;;;;;;;27.05;4.60;;;23.50;99.90;;;;;;5069136;28;20029;-81
2022/09/13 01:15:49;;;;;;;25.65;4.93;;;23.50;99.90;;;;;;5081535;28;20036;-81
2022/09/13 01:18:16;;;;;;;24.75;5.05;;;23.50;99.90;;;;;;5082703;28;20066;-82
2022/09/13 01:21:19;;;;;;;29.75;5.32;;;23.40;99.90;;;;;;5082300;28;20215;-81
2022/09/13 01:24:22;;;;;;;23.33;4.43;;;23.40;99.90;;;;;;5078759;28;20032;-81
2022/09/13 01:26:56;;;;;;;25.88;4.13;;;23.50;99.90;;;;;;5075720;28;20102;-81
2022/09/13 01:29:49;;;;;;;20.38;5.22;;;23.50;99.90;;;;;;5082601;28;20024;-81
2022/09/13 01:32:48;;;;;;;25.23;5.10;;;23.50;99.90;;;;;;5081992;28;20052;-82
2022/09/13 01:35:47;;;;;;;25.45;5.25;;;23.40;99.90;;;;;;5076024;28;20067;-81
2022/09/13 01:39:05;;;;;;;20.80;5.50;;;23.40;99.90;;;;;;5080067;28;20016;-81
2022/09/13 01:41:46;;;;;;;21.80;4.85;;;23.40;99.90;;;;;;5061147;28;20902;-81
2022/09/13 01:44:16;;;;;;;20.80;4.03;;;23.40;99.90;;;;;;5082752;28;20020;-81
2022/09/13 01:47:08;;;;;;;31.50;5.55;;;23.40;99.90;;;;;;5082585;28;20057;-81
2022/09/13 01:49:48;;;;;;;23.70;5.20;;;23.40;99.90;;;;;;5081709;28;20027;-81
2022/09/13 01:52:35;;;;;;;23.20;4.75;;;23.40;99.90;;;;;;5068412;28;20076;-81
2022/09/13 01:55:04;;;;;;;22.00;4.40;;;23.40;99.90;;;;;;5080619;28;20055;-81
2022/09/13 01:57:35;;;;;;;27.65;5.07;;;23.40;99.90;;;;;;5081300;28;20059;-81
2022/09/13 02:00:12;;;;;;;24.25;4.15;;;23.40;99.90;;;;;;5082245;28;20028;-81
2022/09/13 02:02:53;;;;;;;27.27;4.55;;;23.40;99.90;;;;;;5081917;28;20012;-82
2022/09/13 02:05:38;;;;;;;24.10;4.90;;;23.30;99.90;;;;;;5081533;28;20020;-81
2022/09/13 02:08:32;;;;;;;22.58;4.75;;;23.30;99.90;;;;;;5081162;28;20013;-81
2022/09/13 02:11:04;;;;;;;23.60;4.85;;;23.30;99.90;;;;;;5080176;28;20027;-81
2022/09/13 02:13:36;;;;;;;23.38;5.07;;;23.30;99.90;;;;;;5081992;28;20047;-81
2022/09/13 02:16:10;;;;;;;24.67;5.20;;;23.30;99.90;;;;;;5075756;28;20306;-82
2022/09/13 02:18:40;;;;;;;22.02;5.18;;;23.30;99.90;;;;;;5077611;28;20024;-81
2022/09/13 02:21:13;;;;;;;27.15;5.07;;;23.30;99.90;;;;;;5081596;28;20247;-82
2022/09/13 02:23:48;;;;;;;25.50;5.47;;;23.20;99.90;;;;;;5081660;28;20206;-81
2022/09/13 02:26:14;;;;;;;32.75;5.78;;;23.20;99.90;;;;;;5080964;28;20025;-81
2022/09/13 02:28:49;;;;;;;27.08;5.07;;;23.20;99.90;;;;;;5073863;28;20027;-81
2022/09/13 02:31:18;;;;;;;29.95;5.13;;;23.20;99.90;;;;;;5081706;28;20063;-81
2022/09/13 02:33:52;;;;;;;22.73;5.13;;;23.20;99.90;;;;;;5079180;28;20025;-81
2022/09/13 02:36:28;;;;;;;26.50;5.57;;;23.20;99.90;;;;;;5081034;28;20028;-81
2022/09/13 02:39:00;;;;;;;28.65;4.97;;;23.20;99.90;;;;;;5080666;28;20374;-81
2022/09/13 02:41:47;;;;;;;27.98;5.40;;;23.20;99.90;;;;;;5080641;28;20243;-81
2022/09/13 02:44:39;;;;;;;22.20;4.57;;;23.20;99.90;;;;;;5079136;28;20025;-81
2022/09/13 02:47:13;;;;;;;24.50;4.90;;;23.10;99.90;;;;;;5078518;28;20064;-82
2022/09/13 02:49:38;;;;;;;;;;;23.10;99.90;;;;;;5081882;28;20180;-81
2022/09/13 02:52:30;;;;;;;26.58;4.38;;;23.10;99.90;;;;;;5081275;28;20075;-81
2022/09/13 02:55:22;;;;;;;22.30;4.88;;;23.00;99.90;;;;;;5079242;28;20084;-81
2022/09/13 02:58:06;;;;;;;21.88;3.80;;;23.00;99.90;;;;;;5075101;28;20031;-81
2022/09/13 03:00:32;;;;;;;23.63;4.25;;;23.00;99.90;;;;;;5075849;28;20257;-81
2022/09/13 03:03:01;;;;;;;23.02;4.20;;;23.00;99.90;;;;;;5081131;28;20021;-81
2022/09/13 03:05:27;;;;;;;27.15;5.60;;;23.00;99.90;;;;;;5079704;28;20031;-81
2022/09/13 03:07:54;;;;;;;24.42;4.25;;;23.00;99.90;;;;;;5081426;28;20052;-81
2022/09/13 03:10:22;;;;;;;26.50;4.85;;;23.00;99.90;;;;;;5081356;28;20013;-81
2022/09/13 03:13:06;;;;;;;25.55;5.32;;;23.00;99.90;;;;;;5080906;28;20062;-81
2022/09/13 03:16:23;;;;;;;26.55;4.20;;;23.00;99.90;;;;;;5085861;28;20028;-81
2022/09/13 03:19:06;;;;;;;21.40;4.32;;;22.90;99.90;;;;;;5052186;28;20021;-82
2022/09/13 03:21:53;;;;;;;29.57;5.23;;;22.90;99.90;;;;;;5084178;28;20021;-81
2022/09/13 03:24:25;;;;;;;22.30;4.20;;;22.80;99.90;;;;;;5076943;28;20278;-81
2022/09/13 03:26:54;;;;;;;20.88;4.13;;;22.80;99.90;;;;;;5084811;28;20019;-81
2022/09/13 03:29:30;;;;;;;19.08;4.47;;;22.80;99.90;;;;;;5084520;28;20029;-82
2022/09/13 03:32:15;;;;;;;19.88;3.75;;;22.80;99.90;;;;;;5083328;28;20062;-81
2022/09/13 03:34:58;;;;;;;23.05;4.63;;;22.80;99.90;;;;;;5083422;28;20036;-81
2022/09/13 03:37:35;;;;;;;18.10;4.32;;;22.80;99.90;;;;;;5078251;28;20047;-82
2022/09/13 03:40:15;;;;;;;16.15;4.70;;;22.70;99.90;;;;;;5078478;28;20424;-81
2022/09/13 03:42:51;;;;;;;19.90;3.97;;;22.70;99.90;;;;;;5084160;28;20095;-82
2022/09/13 03:45:20;;;;;;;21.10;4.28;;;22.70;99.90;;;;;;5084407;28;20032;-82
2022/09/13 03:47:48;;;;;;;18.13;3.60;;;22.70;99.90;;;;;;5084560;28;20044;-81
2022/09/13 03:50:19;;;;;;;25.17;3.95;;;22.60;99.90;;;;;;5084150;28;20297;-81
2022/09/13 03:52:47;;;;;;;17.80;3.50;;;22.70;99.90;;;;;;5084824;28;20213;-81
2022/09/13 03:55:13;;;;;;;16.98;3.83;;;22.70;99.90;;;;;;5084412;28;20052;-81
2022/09/13 03:57:38;;;;;;;21.48;4.13;;;22.70;99.90;;;;;;5083918;28;20031;-82
2022/09/13 04:00:05;;;;;;;18.52;3.75;;;22.80;99.90;;;;;;5084260;28;20251;-82
2022/09/13 04:02:31;;;;;;;17.52;3.90;;;22.80;99.90;;;;;;5084688;28;20179;-81
2022/09/13 04:04:57;;;;;;;19.40;3.80;;;22.70;99.90;;;;;;5083033;28;20221;-81
2022/09/13 04:07:24;;;;;;;16.88;3.25;;;22.70;99.90;;;;;;5081217;28;20020;-81
2022/09/13 04:09:49;;;;;;;20.60;4.57;;;22.70;99.90;;;;;;5083806;28;20088;-81
2022/09/13 04:12:16;;;;;;;21.15;4.63;;;22.70;99.90;;;;;;5078331;28;20036;-82
2022/09/13 04:14:43;;;;;;;21.35;3.70;;;22.70;99.90;;;;;;5075662;28;20024;-82
2022/09/13 04:17:09;;;;;;;20.02;4.10;;;22.70;99.90;;;;;;5077117;28;20025;-81
2022/09/13 04:19:35;;;;;;;17.65;4.15;;;22.70;99.90;;;;;;5072167;28;20033;-82
2022/09/13 04:22:01;;;;;;;15.55;4.15;;;22.70;99.90;;;;;;5064595;28;20388;-81
2022/09/13 04:24:28;;;;;;;17.45;3.35;;;22.70;99.90;;;;;;5072820;28;20021;-82
2022/09/13 04:26:55;;;;;;;20.45;4.18;;;22.70;99.90;;;;;;5072358;28;20021;-82
2022/09/13 04:29:22;;;;;;;16.45;3.65;;;22.70;99.90;;;;;;5072523;28;20035;-82
2022/09/13 04:31:50;;;;;;;16.42;3.60;;;22.70;99.90;;;;;;5072062;28;20196;-82
2022/09/13 04:34:17;;;;;;;15.35;3.20;;;22.70;99.90;;;;;;5071920;28;20372;-82
2022/09/13 04:36:43;;;;;;;16.80;3.60;;;22.70;99.90;;;;;;5072004;28;20091;-82
2022/09/13 04:39:09;;;;;;;17.33;3.55;;;22.70;99.90;;;;;;5077389;28;20008;-81
2022/09/13 04:41:35;;;;;;;14.88;3.33;;;22.70;99.90;;;;;;5078141;28;20039;-82
2022/09/13 04:44:01;;;;;;;21.50;3.70;;;22.70;99.90;;;;;;5074666;28;20453;-81
2022/09/13 04:46:28;;;;;;;16.52;3.60;;;22.70;99.90;;;;;;5074151;28;20265;-82
2022/09/13 04:48:54;;;;;;;16.88;3.33;;;22.70;99.90;;;;;;5076115;28;20356;-82
2022/09/13 04:51:20;;;;;;;18.08;3.97;;;22.60;99.90;;;;;;5081641;28;20285;-81
2022/09/13 04:53:52;;;;;;;20.13;3.95;;;22.70;99.90;;;;;;5078466;28;20028;-81
2022/09/13 04:56:18;;;;;;;14.70;3.22;;;22.60;99.90;;;;;;5078861;28;20035;-83
2022/09/13 04:58:44;;;;;;;22.00;5.10;;;22.70;99.90;;;;;;5077603;28;20386;-80
2022/09/13 05:01:10;;;;;;;15.55;4.40;;;22.70;99.90;;;;;;5073540;28;20100;-81
2022/09/13 05:03:36;;;;;;;18.02;4.78;;;22.70;99.90;;;;;;5072614;28;20372;-81
2022/09/13 05:06:07;;;;;;;20.88;5.47;;;22.70;99.90;;;;;;5074887;28;20115;-81
2022/09/13 05:08:36;;;;;;;23.50;8.57;;;22.70;99.90;;;;;;5066381;28;20035;-81
2022/09/13 05:11:02;;;;;;;23.73;10.18;;;22.70;99.90;;;;;;5071682;28;20081;-81
2022/09/13 05:13:28;;;;;;;20.48;12.70;;;22.70;99.90;;;;;;5065279;28;20078;-81
2022/09/13 05:15:58;;;;;;;28.80;14.18;;;22.70;99.90;;;;;;5072445;28;20081;-81
2022/09/13 05:18:32;;;;;;;30.38;16.55;;;22.70;99.90;;;;;;5066105;28;20566;-81
2022/09/13 05:20:59;;;;;;;35.53;19.35;;;22.70;99.90;;;;;;5068719;28;20029;-80
2022/09/13 05:23:26;;;;;;;42.38;24.30;;;22.80;99.90;;;;;;5075242;28;20111;-80
2022/09/13 05:25:57;;;;;;;40.88;27.92;;;22.70;99.90;;;;;;5072143;28;20016;-80
2022/09/13 05:28:23;;;;;;;47.33;31.77;;;22.70;99.90;;;;;;5069672;28;20458;-80
2022/09/13 05:31:19;;;;;;;61.40;40.42;;;22.80;99.90;;;;;;5071422;28;20025;-80
2022/09/13 05:33:46;;;;;;;51.80;38.83;;;22.80;99.90;;;;;;5069142;28;20071;-80
2022/09/13 05:36:12;;;;;;;55.40;41.45;;;22.80;99.90;;;;;;5070689;28;20043;-80
2022/09/13 05:38:38;;;;;;;56.15;42.05;;;22.80;99.90;;;;;;5071078;28;20477;-80
2022/09/13 05:41:05;;;;;;;65.63;49.95;;;22.90;99.90;;;;;;5070673;28;20417;-80
2022/09/13 05:43:33;;;;;;;67.03;54.03;;;22.90;99.90;;;;;;5071388;28;20040;-80
2022/09/13 05:46:05;;;;;;;70.68;53.22;;;22.90;99.90;;;;;;5071056;28;20465;-80
2022/09/13 05:48:32;;;;;;;77.05;61.58;;;22.90;99.90;;;;;;5070353;28;20531;-80
2022/09/13 05:51:13;;;;;;;84.43;74.40;;;22.90;99.90;;;;;;5067415;28;20386;-80
2022/09/13 05:53:41;;;;;;;86.40;76.28;;;22.90;99.90;;;;;;5070981;28;20131;-80
2022/09/13 05:56:09;;;;;;;96.07;83.38;;;22.90;99.90;;;;;;5070322;28;20492;-80
2022/09/13 05:58:38;;;;;;;98.72;87.38;;;22.90;99.90;;;;;;5070862;28;20050;-80
2022/09/13 06:01:04;;;;;;;110.95;94.90;;;22.90;99.90;;;;;;5070870;28;20463;-80
2022/09/13 06:03:30;;;;;;;110.22;94.63;;;22.90;99.90;;;;;;5070762;28;20052;-79
2022/09/13 06:05:56;;;;;;;105.97;94.53;;;22.90;99.90;;;;;;5071052;28;20096;-80
2022/09/13 06:08:26;;;;;;;111.05;98.88;;;23.00;99.90;;;;;;5070967;28;20029;-80
2022/09/13 06:10:57;;;;;;;112.18;100.10;;;23.00;99.90;;;;;;5070469;28;20131;-80
2022/09/13 06:13:23;;;;;;;112.38;99.97;;;23.00;99.90;;;;;;5070346;28;20020;-80
2022/09/13 06:15:48;;;;;;;111.85;100.10;;;23.10;99.90;;;;;;5070445;28;20028;-80
2022/09/13 06:18:15;;;;;;;113.75;101.07;;;23.10;99.90;;;;;;5070468;28;20023;-80
2022/09/13 06:20:41;;;;;;;115.55;102.93;;;23.10;99.90;;;;;;5070050;28;20024;-80
2022/09/13 06:23:06;;;;;;;116.40;103.82;;;23.20;99.90;;;;;;5070438;28;20374;-80
2022/09/13 06:25:32;;;;;;;118.05;105.03;;;23.20;99.90;;;;;;5070522;28;20058;-80
2022/09/13 06:27:57;;;;;;;121.63;104.57;;;23.20;99.90;;;;;;5069961;28;20031;-80
2022/09/13 06:30:23;;;;;;;119.28;105.50;;;23.20;99.90;;;;;;5070214;28;20021;-79
2022/09/13 06:32:49;;;;;;;117.35;104.78;;;23.20;99.90;;;;;;5069990;28;20060;-80
2022/09/13 06:35:15;;;;;;;118.30;105.75;;;23.20;99.90;;;;;;5069884;28;20056;-80
2022/09/13 06:37:41;;;;;;;123.40;107.63;;;23.20;99.90;;;;;;5069967;28;20119;-80
2022/09/13 06:40:08;;;;;;;114.50;102.53;;;23.20;99.90;;;;;;5069981;28;20100;-80
2022/09/13 06:42:35;;;;;;;116.57;104.05;;;23.20;99.90;;;;;;5070083;28;20021;-80
2022/09/13 06:45:00;;;;;;;116.15;103.70;;;23.30;99.90;;;;;;5069826;28;20025;-80
2022/09/13 06:47:26;;;;;;;108.93;97.22;;;23.30;99.90;;;;;;5070007;28;20024;-80
2022/09/13 06:49:52;;;;;;;108.97;95.60;;;23.30;99.90;;;;;;5069460;28;20107;-79
2022/09/13 06:52:17;;;;;;;105.18;93.78;;;23.40;99.90;;;;;;5069775;28;20495;-79
2022/09/13 06:54:43;;;;;;;103.03;91.28;;;23.40;99.90;;;;;;5069821;28;20079;-80
2022/09/13 06:57:09;;;;;;;101.85;91.13;;;23.50;99.90;;;;;;5069578;28;20027;-80
2022/09/13 06:59:34;;;;;;;95.18;84.80;;;23.50;99.90;;;;;;5069873;28;20032;-80
2022/09/13 07:02:00;;;;;;;93.78;80.43;;;23.60;99.90;;;;;;5070204;28;20063;-80
2022/09/13 07:04:30;;;;;;;91.03;81.18;;;23.60;99.90;;;;;;5069949;28;20016;-80
2022/09/13 07:06:57;;;;;;;88.82;79.32;;;23.60;99.90;;;;;;5062372;28;20025;-80
2022/09/13 07:09:23;;;;;;;85.57;76.38;;;23.60;99.90;;;;;;5063285;28;20489;-80
2022/09/13 07:11:51;;;;;;;82.60;71.97;;;23.60;99.90;;;;;;5069149;28;20389;-80
2022/09/13 07:14:25;;;;;;;79.72;70.35;;;23.70;99.90;;;;;;5099512;28;20591;-80
2022/09/13 07:16:52;;;;;;;72.95;65.07;;;23.80;99.90;;;;;;5069485;28;20027;-80
2022/09/13 07:19:21;;;;;;;77.50;65.20;;;23.80;99.90;;;;;;5069525;28;20481;-80
2022/09/13 07:21:48;;;;;;;69.25;59.08;;;23.90;99.90;;;;;;5069412;28;20020;-80
2022/09/13 07:24:18;;;;;;;69.15;58.42;;;24.00;99.90;;;;;;5069686;28;20493;-80
2022/09/13 07:26:44;;;;;;;63.30;56.60;;;24.00;99.90;;;;;;5069166;28;20013;-80
2022/09/13 07:29:13;;;;;;;60.75;54.38;;;24.20;99.90;;;;;;5069369;28;20087;-80
2022/09/13 07:31:42;;;;;;;57.33;51.15;;;24.20;99.90;;;;;;5069259;28;20501;-80
2022/09/13 07:34:14;;;;;;;57.60;48.38;;;24.30;99.90;;;;;;5069187;28;20033;-80
2022/09/13 07:36:42;;;;;;;58.90;50.40;;;24.40;99.90;;;;;;5069303;28;20439;-80
2022/09/13 07:39:08;;;;;;;54.78;48.65;;;24.50;99.90;;;;;;5069096;28;20087;-80
2022/09/13 07:41:34;;;;;;;57.25;46.72;;;24.60;99.90;;;;;;5069236;28;20427;-80
2022/09/13 07:44:00;;;;;;;55.63;46.92;;;24.70;99.90;;;;;;5069751;28;20247;-80
2022/09/13 07:46:31;;;;;;;52.83;44.63;;;24.80;99.90;;;;;;5069436;28;20082;-80
2022/09/13 07:48:57;;;;;;;50.55;43.33;;;24.90;99.90;;;;;;5069627;28;20035;-80
2022/09/13 07:51:26;;;;;;;55.33;42.20;;;25.00;99.90;;;;;;5068624;28;20108;-80
2022/09/13 07:53:55;;;;;;;45.58;39.13;;;25.00;99.90;;;;;;5069200;28;20115;-80
2022/09/13 07:56:23;;;;;;;42.72;37.80;;;25.00;99.90;;;;;;5067369;28;20298;-80
2022/09/13 07:58:50;;;;;;;39.90;35.38;;;25.10;99.90;;;;;;5069205;28;20210;-80
2022/09/13 08:01:20;;;;;;;48.65;34.22;;;25.10;99.90;;;;;;5072698;28;20023;-80
2022/09/13 08:04:04;;;;;;;42.97;32.28;;;25.20;99.90;;;;;;5072901;28;20060;-80
2022/09/13 08:06:32;;;;;;;38.78;28.80;;;25.30;99.90;;;;;;5073039;28;20025;-80
2022/09/13 08:08:58;;;;;;;30.45;26.70;;;25.50;99.90;;;;;;5072759;28;20032;-80
2022/09/13 08:11:25;;;;;;;32.05;25.63;;;25.60;99.90;;;;;;5072345;28;20017;-80
2022/09/13 08:13:51;;;;;;;28.98;23.85;;;25.70;99.90;;;;;;5072715;28;20033;-80
2022/09/13 08:16:18;;;;;;;28.52;21.98;;;25.80;99.90;;;;;;5072524;28;20484;-80
2022/09/13 08:18:52;;;;;;;32.35;21.63;;;25.80;99.90;;;;;;5072693;28;20473;-80
2022/09/13 08:21:19;;;;;;;27.00;18.33;;;25.90;99.90;;;;;;5072603;28;20025;-80
2022/09/13 08:23:45;;;;;;;23.05;17.38;;;25.90;99.90;;;;;;5071914;28;20057;-80
2022/09/13 08:26:11;;;;;;;26.50;14.38;;;25.90;99.90;;;;;;5101554;28;20028;-80
2022/09/13 08:28:41;;;;;;;21.27;13.52;;;25.90;99.90;;;;;;5072648;28;20400;-80
2022/09/13 08:31:09;;;;;;;20.75;11.23;;;25.90;99.90;;;;;;5072155;28;20078;-80
2022/09/13 08:33:36;;;;;;;21.38;9.75;;;26.00;99.90;;;;;;5072209;28;20031;-80
2022/09/13 08:36:02;;;;;;;16.95;8.05;;;26.00;99.90;;;;;;5070765;28;20063;-80
2022/09/13 08:38:28;;;;;;;12.18;7.05;;;26.00;99.90;;;;;;5072105;28;20565;-80
2022/09/13 08:41:32;;;;;;;8.82;6.10;;;26.00;99.90;;;;;;5071929;28;20052;-80
2022/09/13 08:44:22;;;;;;;11.23;6.85;;;26.00;99.90;;;;;;5064987;28;20024;-80
2022/09/13 08:46:48;;;;;;;10.77;5.80;;;26.00;99.90;;;;;;5072300;28;20025;-80
2022/09/13 08:49:23;;;;;;;13.75;5.65;;;26.00;99.90;;;;;;5072470;28;20013;-80
2022/09/13 08:51:56;;;;;;;15.18;5.68;;;26.10;99.90;;;;;;5072053;28;20142;-80
2022/09/13 08:54:22;;;;;;;10.43;4.93;;;26.20;99.90;;;;;;5072077;28;20503;-80
2022/09/13 08:57:15;;;;;;;11.57;4.65;;;26.40;99.90;;;;;;5071706;28;20033;-80
2022/09/13 09:00:21;;;;;;;11.00;3.80;;;26.60;99.90;;;;;;5066943;28;20016;-80
2022/09/13 09:02:56;;;;;;;7.82;3.40;;;26.70;99.90;;;;;;5065441;28;20025;-80
2022/09/13 09:05:23;;;;;;;;;;;26.70;99.90;;;;;;5066658;28;20099;-80
2022/09/13 09:07:53;;;;;;;10.40;3.58;;;26.70;99.90;;;;;;5071214;28;19911;-80
2022/09/13 09:10:46;;;;;;;9.70;3.42;;;26.70;99.90;;;;;;5071790;28;20283;-80
2022/09/13 09:13:29;;;;;;;12.35;3.75;;;26.90;99.90;;;;;;5066713;28;20518;-80
2022/09/13 09:16:00;;;;;;;7.03;3.38;;;27.00;99.90;;;;;;5071449;28;20060;-80
2022/09/13 09:18:37;;;;;;;9.25;3.47;;;27.00;99.90;;;;;;5065326;28;20023;-80
2022/09/13 09:21:05;;;;;;;9.38;3.63;;;27.20;99.90;;;;;;5071338;28;20036;-80
2022/09/13 09:23:39;;;;;;;9.40;2.95;;;27.30;99.90;;;;;;5071457;28;20093;-80
2022/09/13 09:26:14;;;;;;;9.77;3.47;;;27.30;99.90;;;;;;5071232;28;20031;-80
2022/09/13 09:28:40;;;;;;;7.60;3.55;;;27.30;99.90;;;;;;5071438;28;20025;-80
2022/09/13 09:31:31;;;;;;;11.02;3.40;;;27.30;99.90;;;;;;5071021;28;20121;-80
2022/09/13 09:34:21;;;;;;;9.43;3.17;;;27.40;99.90;;;;;;5071364;28;20021;-80
2022/09/13 09:37:00;;;;;;;10.52;3.20;;;27.50;99.90;;;;;;5067363;28;20032;-80
2022/09/13 09:39:32;;;;;;;8.35;3.00;;;27.60;99.90;;;;;;5071180;28;20013;-80
2022/09/13 09:41:58;;;;;;;11.15;3.83;;;27.70;99.90;;;;;;5070422;28;20033;-80
2022/09/13 09:44:27;;;;;;;15.05;3.63;;;27.90;99.90;;;;;;5071193;28;20039;-80
2022/09/13 09:47:17;;;;;;;15.00;3.35;;;28.00;99.90;;;;;;5071025;28;20032;-80
2022/09/13 09:50:08;;;;;;;10.15;3.53;;;28.00;99.90;;;;;;5068061;28;20097;-80
2022/09/13 09:52:44;;;;;;;8.38;3.60;;;28.10;99.90;;;;;;5070230;28;20043;-80
2022/09/13 09:55:33;;;;;;;7.53;3.30;;;28.00;99.90;;;;;;5070730;28;20702;-80
2022/09/13 09:58:05;;;;;;;12.10;3.72;;;28.00;99.90;;;;;;5065238;28;20033;-80
2022/09/13 10:00:34;;;;;;;8.13;3.78;;;28.00;99.90;;;;;;5069169;28;20029;-80
2022/09/13 10:03:06;;;;;;;11.32;3.83;;;28.10;99.90;;;;;;5070781;28;20025;-80
2022/09/13 10:05:34;;;;;;;11.50;4.03;;;28.10;99.90;;;;;;5066943;28;20491;-80
2022/09/13 10:08:05;;;;;;;11.80;4.72;;;28.30;99.90;;;;;;5070791;28;20032;-80
2022/09/13 10:10:41;;;;;;;13.85;4.78;;;28.50;99.90;;;;;;5070617;28;20060;-81
2022/09/13 10:13:13;;;;;;;9.02;4.28;;;28.80;99.90;;;;;;5069114;28;20027;-81
2022/09/13 10:16:02;;;;;;;11.93;4.60;;;28.70;99.90;;;;;;5070390;28;20039;-80
2022/09/13 10:18:30;;;;;;;9.95;4.78;;;28.70;99.90;;;;;;5064838;28;20021;-80
2022/09/13 10:21:16;;;;;;;11.48;4.32;;;28.70;99.90;;;;;;5070372;28;20032;-80
2022/09/13 10:23:43;;;;;;;14.82;4.72;;;28.70;99.90;;;;;;5070258;28;20387;-80
2022/09/13 10:26:13;;;;;;;12.88;5.00;;;29.00;99.90;;;;;;5070253;28;20013;-80
2022/09/13 10:28:54;;;;;;;10.25;4.60;;;29.10;99.90;;;;;;5070298;28;20024;-80
2022/09/13 10:31:26;;;;;;;10.45;4.25;;;29.30;99.90;;;;;;5068803;28;20047;-80
2022/09/13 10:34:02;;;;;;;9.30;4.45;;;29.10;99.90;;;;;;5070001;28;20405;-80
2022/09/13 10:36:35;;;;;;;12.98;4.47;;;28.80;99.90;;;;;;5066419;28;20397;-79
2022/09/13 10:39:05;;;;;;;10.27;4.35;;;28.70;99.90;;;;;;5063905;28;20012;-79
2022/09/13 10:41:37;;;;;;;10.07;3.90;;;28.80;99.90;;;;;;5069655;28;20025;-80
2022/09/13 10:44:06;;;;;;;11.88;4.10;;;28.90;99.90;;;;;;5069855;28;20028;-80
2022/09/13 10:46:35;;;;;;;10.35;4.68;;;28.80;99.90;;;;;;5070105;28;20028;-79
2022/09/13 10:49:01;;;;;;;11.70;4.53;;;28.70;99.90;;;;;;5069904;28;20161;-80
2022/09/13 10:51:35;;;;;;;11.15;4.90;;;28.60;99.90;;;;;;5062149;28;20028;-80
2022/09/13 10:54:22;;;;;;;12.13;4.82;;;28.70;99.90;;;;;;5069882;28;20032;-80
2022/09/13 10:56:48;;;;;;;11.13;5.10;;;28.70;99.90;;;;;;5069621;28;20029;-79
2022/09/13 10:59:20;;;;;;;15.20;5.38;;;28.70;99.90;;;;;;5069811;28;20025;-80
2022/09/13 11:01:54;;;;;;;11.20;5.10;;;28.70;99.90;;;;;;5069495;28;20081;-80
2022/09/13 11:05:00;;;;;;;20.10;5.93;;;28.80;99.90;;;;;;5069746;28;20024;-80
2022/09/13 11:08:03;;;;;;;12.85;5.90;;;28.70;99.90;;;;;;5058680;28;20036;-80
2022/09/13 11:10:40;;;;;;;18.50;6.47;;;28.70;99.90;;;;;;5066495;28;20047;-80
2022/09/13 11:13:27;;;;;;;17.15;6.30;;;28.70;99.90;;;;;;5068729;28;20017;-81
2022/09/13 11:16:05;;;;;;;17.63;6.78;;;28.80;99.90;;;;;;5062686;28;20119;-80
2022/09/13 11:18:50;;;;;;;13.02;6.68;;;28.80;99.90;;;;;;5064230;28;20382;-80
2022/09/13 11:21:32;;;;;;;20.67;8.10;;;28.80;99.90;;;;;;5066371;28;20040;-80
2022/09/13 11:24:29;;;;;;;18.90;7.80;;;28.70;99.90;;;;;;5069501;28;20028;-80
2022/09/13 11:26:58;;;;;;;13.98;7.03;;;28.80;99.90;;;;;;5065460;28;20390;-80
2022/09/13 11:29:49;;;;;;;14.13;7.57;;;28.60;99.90;;;;;;5069590;28;20488;-80
2022/09/13 11:32:53;;;;;;;15.43;7.93;;;28.60;99.90;;;;;;5069297;28;20060;-80
2022/09/13 11:35:28;;;;;;;16.30;7.75;;;28.70;99.90;;;;;;5067639;28;20531;-80
2022/09/13 11:38:02;;;;;;;18.55;7.55;;;28.80;99.90;;;;;;5073361;28;20016;-80
2022/09/13 11:40:57;;;;;;;15.75;7.53;;;28.80;99.90;;;;;;5073080;28;20036;-80
2022/09/13 11:44:00;;;;;;;16.45;8.57;;;28.90;99.90;;;;;;5069528;28;20036;-80
2022/09/13 11:46:38;;;;;;;19.75;8.68;;;28.90;99.90;;;;;;5072814;28;20409;-80
2022/09/13 11:49:25;;;;;;;13.82;7.68;;;28.60;99.90;;;;;;5073320;28;20479;-80
2022/09/13 11:52:18;;;;;;;18.42;8.50;;;28.60;99.90;;;;;;5071580;28;20033;-80
2022/09/13 11:55:07;;;;;;;17.40;8.20;;;28.60;99.90;;;;;;5070770;28;20039;-80
2022/09/13 11:57:38;;;;;;;16.40;8.45;;;28.50;99.90;;;;;;5072878;28;20021;-80
2022/09/13 12:00:18;;;;;;;17.35;8.90;;;28.40;99.90;;;;;;5072809;28;20024;-80
2022/09/13 12:03:20;;;;;;;16.85;8.35;;;28.20;99.90;;;;;;5073366;28;20025;-80
2022/09/13 12:05:56;;;;;;;16.90;7.82;;;28.20;99.90;;;;;;5070618;28;20380;-80
2022/09/13 12:08:30;;;;;;;18.60;8.20;;;28.40;99.90;;;;;;5072863;28;20031;-80
2022/09/13 12:11:01;;;;;;;57.53;11.45;;;28.50;99.90;;;;;;5071341;28;20024;-80
2022/09/13 12:13:35;;;;;;;21.15;8.18;;;28.60;99.90;;;;;;5072980;28;20082;-80
2022/09/13 12:16:07;;;;;;;16.35;8.20;;;28.80;99.90;;;;;;5066741;28;20534;-80
2022/09/13 12:18:39;;;;;;;17.42;8.02;;;28.90;99.90;;;;;;5072499;28;20488;-80
2022/09/13 12:21:10;;;;;;;18.25;7.30;;;29.10;99.90;;;;;;5071086;28;20071;-80
2022/09/13 12:23:52;;;;;;;20.80;7.82;;;29.20;99.90;;;;;;5072583;28;20027;-80
2022/09/13 12:26:28;;;;;;;21.00;8.18;;;29.50;99.90;;;;;;5072283;28;20027;-80
2022/09/13 12:29:01;;;;;;;19.27;8.95;;;29.90;99.90;;;;;;5072579;28;20020;-80
2022/09/13 12:31:30;;;;;;;18.42;9.63;;;30.30;99.90;;;;;;5072577;28;20094;-80
2022/09/13 12:33:57;;;;;;;21.10;9.18;;;30.80;99.70;;;;;;5072540;28;20044;-80
2022/09/13 12:36:31;;;;;;;21.50;9.65;;;31.00;99.10;;;;;;5072421;28;20485;-80
2022/09/13 12:39:08;;;;;;;20.17;8.98;;;30.80;99.00;;;;;;5072976;28;20535;-80
2022/09/13 12:41:46;;;;;;;24.42;9.60;;;30.90;98.70;;;;;;5066313;28;20066;-80
2022/09/13 12:44:19;;;;;;;21.55;10.38;;;30.90;99.00;;;;;;5072286;28;20016;-80
2022/09/13 12:47:17;;;;;;;25.08;11.13;;;30.70;98.70;;;;;;5071051;28;20576;-80
2022/09/13 12:49:48;;;;;;;19.77;10.27;;;30.60;98.60;;;;;;5058656;28;20040;-80
2022/09/13 12:52:32;;;;;;;22.90;10.43;;;30.90;98.80;;;;;;5070847;28;20028;-80
2022/09/13 12:55:11;;;;;;;21.08;10.70;;;30.90;99.00;;;;;;5072286;28;20120;-80
2022/09/13 12:57:50;;;;;;;24.08;11.60;;;30.70;98.80;;;;;;5071957;28;20500;-80
2022/09/13 13:00:19;;;;;;;23.02;11.55;;;30.50;99.60;;;;;;5071942;28;20024;-80
2022/09/13 13:02:48;;;;;;;24.45;11.68;;;30.50;99.80;;;;;;5071999;28;20166;-81
2022/09/13 13:05:23;;;;;;;24.38;10.43;;;30.50;99.30;;;;;;5071845;28;20095;-80